Time;durP1;ratioP1;P1;durP2;ratioP2;P2;SDS_P1;SDS_P2;PMS_P1;PMS_P2;Temp;Humidity;BMP_temperature;BMP_pressure;BME280_temperature;BME280_humidity;BME280_pressure;Samples;Min_cycle;Max_cycle;Signal;HPM_P1;HPM_P2
2022/08/12 00:44:41;;;;;;;3.03;2.20;;;;;;;21.87;36.83;100273.94;5014415;28;20186;-82
2022/08/12 00:47:07;;;;;;;8.13;2.40;;;;;;;21.93;36.48;100273.34;5013162;28;20183;-82
2022/08/12 00:49:33;;;;;;;7.93;2.37;;;;;;;21.89;36.47;100273.78;5024408;28;20551;-82
2022/08/12 00:52:08;;;;;;;2.87;2.03;;;;;;;21.84;36.91;100266.38;5021616;28;20588;-82
2022/08/12 00:54:45;;;;;;;5.77;2.57;;;;;;;21.74;37.04;100269.13;5013904;28;20233;-82
2022/08/12 00:57:14;;;;;;;5.97;2.73;;;;;;;21.74;37.29;100276.13;5012497;28;20186;-82
2022/08/12 01:00:01;;;;;;;5.67;1.90;;;;;;;21.58;37.00;100272.44;5013324;28;20197;-82
2022/08/12 01:02:33;;;;;;;5.13;2.43;;;;;;;21.62;37.96;100279.97;5035302;28;20254;-81
2022/08/12 01:13:20;;;;;;;7.57;2.63;;;;;;;21.75;36.94;100281.22;5021482;28;20228;-81
2022/08/12 01:15:48;;;;;;;2.30;2.10;;;;;;;21.73;36.89;100272.72;5026911;28;20194;-81
2022/08/12 01:18:14;;;;;;;8.43;2.20;;;;;;;21.59;36.83;100276.69;5012358;28;20190;-81
2022/08/12 01:20:48;;;;;;;3.33;2.20;;;;;;;21.57;36.80;100264.72;5010623;28;20233;-81
2022/08/12 01:23:39;;;;;;;6.63;2.20;;;;;;;21.65;36.70;100274.44;5022632;28;20251;-80
2022/08/12 01:26:08;;;;;;;5.23;1.93;;;;;;;21.75;36.23;100277.78;5013104;28;20317;-81
2022/08/12 01:28:34;;;;;;;3.47;2.40;;;;;;;21.87;36.23;100283.63;5012213;28;20665;-82
2022/08/12 01:31:03;;;;;;;2.73;1.90;;;;;;;21.94;36.15;100282.00;5018630;28;20221;-82
2022/08/12 01:33:34;;;;;;;3.83;2.57;;;;;;;21.89;36.30;100294.75;5029248;28;21974;-82
2022/08/12 01:36:02;;;;;;;4.43;1.93;;;;;;;21.76;36.40;100287.28;5011906;28;20183;-82
2022/08/12 01:38:33;;;;;;;4.53;2.37;;;;;;;21.84;36.41;100287.34;5013493;28;20190;-81
2022/08/12 01:41:01;;;;;;;5.70;2.30;;;;;;;21.79;36.45;100284.34;5018752;28;20300;-82
2022/08/12 01:43:27;;;;;;;2.67;2.00;;;;;;;21.68;36.80;100282.81;5029747;28;20213;-83
2022/08/12 01:46:18;;;;;;;7.10;2.10;;;;;;;21.61;36.90;100284.41;5012759;28;20651;-80
2022/08/12 01:49:01;;;;;;;3.57;2.23;;;;;;;21.55;36.86;100287.59;5022104;28;20549;-80
2022/08/12 01:51:41;;;;;;;5.13;2.30;;;;;;;21.56;36.91;100282.22;5024632;28;20233;-81
2022/08/12 01:54:12;;;;;;;1.90;1.80;;;;;;;21.51;37.14;100283.59;5013929;28;20299;-81
2022/08/12 01:57:06;;;;;;;4.43;2.40;;;;;;;21.50;37.21;100276.75;5012070;28;20652;-81
2022/08/12 01:59:48;;;;;;;6.17;2.20;;;;;;;21.45;37.13;100278.00;5027640;28;20183;-80
2022/08/12 02:02:17;;;;;;;3.33;1.93;;;;;;;21.46;36.76;100281.47;5034588;28;20299;-80
2022/08/12 02:11:18;;;;;;;3.53;2.17;;;;;;;21.49;37.21;100270.69;5014245;28;20283;-80
2022/08/12 02:13:57;;;;;;;4.47;2.40;;;;;;;21.42;37.42;100275.69;5032749;28;20202;-80
2022/08/12 02:16:40;;;;;;;3.63;2.30;;;;;;;21.54;37.35;100278.09;5018749;28;20190;-80
2022/08/12 02:19:43;;;;;;;6.13;2.33;;;;;;;21.41;37.49;100281.09;5011381;28;20193;-81
2022/08/12 02:22:27;;;;;;;3.53;2.27;;;;;;;21.40;37.65;100271.59;5020043;28;20576;-81
2022/08/12 02:25:02;;;;;;;7.43;2.27;;;;;;;21.36;37.83;100270.22;5013610;28;20226;-80
2022/08/12 02:27:32;;;;;;;6.10;2.30;;;;;;;21.36;37.87;100267.63;5012656;28;20178;-80
2022/08/12 02:29:58;;;;;;;2.33;2.13;;;;;;;21.17;38.15;100268.59;5012416;28;20179;-80
2022/08/12 02:32:24;;;;;;;4.63;2.13;;;;;;;21.18;38.52;100273.66;5034763;28;20226;-82
2022/08/12 02:34:50;;;;;;;2.63;2.00;;;;;;;21.03;38.82;100273.38;5010820;28;20182;-81
2022/08/12 02:37:17;;;;;;;2.67;2.13;;;;;;;21.09;38.66;100272.78;5012887;28;20175;-81
2022/08/12 02:39:48;;;;;;;2.63;2.43;;;;;;;20.99;38.97;100268.56;5012501;28;20191;-79
2022/08/12 02:42:15;;;;;;;5.03;2.27;;;;;;;20.99;38.86;100266.78;5034050;28;20304;-79
2022/08/12 02:44:44;;;;;;;4.87;2.30;;;;;;;21.08;38.88;100273.75;5010787;28;20261;-79
2022/08/12 02:47:10;;;;;;;3.70;2.17;;;;;;;20.99;38.95;100273.78;5012214;28;20166;-79
2022/08/12 02:49:43;;;;;;;4.03;2.53;;;;;;;21.06;38.71;100269.63;5022402;28;20594;-80
2022/08/12 02:52:09;;;;;;;3.93;2.07;;;;;;;21.05;38.78;100275.81;5019349;28;20291;-80
2022/08/12 02:54:36;;;;;;;5.70;2.33;;;;;;;21.00;39.08;100278.06;5009802;28;20186;-80
2022/08/12 02:57:02;;;;;;;7.43;2.50;;;;;;;20.96;39.40;100277.53;5043845;28;20225;-83
2022/08/12 02:59:28;;;;;;;2.47;2.17;;;;;;;20.83;39.73;100277.91;5012691;28;20302;-81
2022/08/12 03:02:02;;;;;;;6.10;2.20;;;;;;;20.94;39.50;100275.06;4993598;28;20329;-82
2022/08/12 03:04:33;;;;;;;4.17;2.10;;;;;;;20.93;39.59;100277.84;5010097;28;20189;-81
2022/08/12 03:07:09;;;;;;;2.57;2.20;;;;;;;20.90;39.76;100278.13;5011997;28;20237;-82
2022/08/12 03:09:44;;;;;;;3.67;2.23;;;;;;;20.76;39.94;100279.44;4998576;28;20230;-83
2022/08/12 03:12:11;;;;;;;6.07;2.40;;;;;;;20.86;39.93;100272.34;5030705;28;20224;-81
2022/08/12 03:14:41;;;;;;;4.00;2.40;;;;;;;20.60;40.42;100280.88;5015641;28;20178;-82
2022/08/12 03:17:10;;;;;;;5.10;2.40;;;;;;;20.59;40.23;100275.78;5025170;28;20229;-81
2022/08/12 03:19:38;;;;;;;3.33;1.93;;;;;;;20.61;40.97;100277.25;5013300;28;20277;-80
2022/08/12 03:22:11;;;;;;;5.53;2.63;;;;;;;20.55;41.14;100288.28;5023867;28;20707;-79
2022/08/12 03:24:41;;;;;;;2.73;1.97;;;;;;;20.54;41.07;100283.22;5015798;28;20193;-79
2022/08/12 03:27:08;;;;;;;3.10;2.13;;;;;;;20.50;41.52;100284.50;5014699;28;20269;-80
2022/08/12 03:29:35;;;;;;;2.90;2.07;;;;;;;20.44;41.31;100284.09;5014660;28;20221;-79
2022/08/12 03:32:01;;;;;;;2.47;2.27;;;;;;;20.51;41.72;100286.94;5002393;28;20591;-79
2022/08/12 03:34:32;;;;;;;7.67;2.70;;;;;;;20.43;42.18;100294.69;5013909;28;20191;-81
2022/08/12 03:36:59;;;;;;;5.90;2.20;;;;;;;20.32;41.98;100296.50;5014573;28;20182;-82
2022/08/12 03:39:40;;;;;;;3.90;2.37;;;;;;;20.19;42.65;100298.59;5014271;28;20218;-67
2022/08/12 03:42:24;;;;;;;4.53;2.07;;;;;;;19.89;43.91;100303.06;5008842;28;20213;-67
2022/08/12 04:01:55;;;;;;;2.50;2.30;;;;;;;19.41;45.81;100307.31;5032993;28;20255;-66
2022/08/12 04:04:34;;;;;;;5.80;2.63;;;;;;;19.33;46.22;100307.16;5016542;28;20182;-66
2022/08/12 04:07:08;;;;;;;3.30;2.40;;;;;;;19.41;46.74;100312.53;5029924;28;20241;-66
2022/08/12 04:09:36;;;;;;;3.63;2.60;;;;;;;19.43;46.75;100309.78;5015107;28;20198;-66
2022/08/12 04:14:48;;;;;;;4.07;2.43;;;;;;;19.38;47.03;100312.78;5021204;28;20589;-66
2022/08/12 04:17:15;;;;;;;4.07;2.40;;;;;;;19.42;47.53;100316.75;5013872;28;20537;-66
2022/08/12 04:19:41;;;;;;;5.53;2.77;;;;;;;19.35;47.77;100316.50;5014923;28;20186;-67
2022/08/12 04:22:06;;;;;;;7.17;2.60;;;;;;;19.13;48.44;100314.94;5022249;28;20266;-67
2022/08/12 04:24:34;;;;;;;4.07;2.83;;;;;;;19.05;47.92;100311.34;5014445;28;20182;-67
2022/08/12 04:27:00;;;;;;;7.17;2.83;;;;;;;19.21;47.70;100316.06;5013354;28;20333;-67
2022/08/12 04:29:25;;;;;;;4.83;2.87;;;;;;;19.23;47.99;100317.56;5013999;28;20705;-67
2022/08/12 04:31:54;;;;;;;6.60;3.07;;;;;;;19.32;48.32;100318.53;5033122;28;20217;-67
2022/08/12 04:34:21;;;;;;;8.77;2.90;;;;;;;19.37;47.48;100320.75;5015959;28;20186;-66
2022/08/12 04:36:47;;;;;;;4.63;2.53;;;;;;;19.36;48.59;100312.09;5012853;28;20657;-67
2022/08/12 04:39:12;;;;;;;5.13;2.50;;;;;;;19.50;47.67;100316.09;5013350;28;20195;-67
2022/08/12 04:41:39;;;;;;;3.47;2.53;;;;;;;19.54;47.73;100320.09;5019780;28;20277;-67
2022/08/12 04:44:05;;;;;;;9.07;3.13;;;;;;;19.55;47.99;100315.66;5015658;28;20179;-67
2022/08/12 04:46:31;;;;;;;5.13;2.63;;;;;;;19.35;48.43;100316.50;5013043;28;20680;-67
2022/08/12 04:48:56;;;;;;;8.50;2.50;;;;;;;19.47;48.68;100317.22;5024210;28;20579;-67
2022/08/12 04:51:22;;;;;;;8.57;2.43;;;;;;;19.17;50.04;100325.94;5024857;28;20232;-67
2022/08/12 04:53:49;;;;;;;4.80;2.80;;;;;;;19.37;49.38;100326.78;5017784;28;20183;-67
2022/08/12 04:56:15;;;;;;;4.73;2.63;;;;;;;19.42;49.48;100321.16;5014082;28;20203;-67
2022/08/12 04:58:40;;;;;;;4.83;2.93;;;;;;;19.56;49.23;100327.75;5012638;28;20255;-67
2022/08/12 05:01:06;;;;;;;4.60;2.63;;;;;;;19.57;48.20;100326.81;5014407;28;20367;-67
2022/08/12 05:03:32;;;;;;;6.23;2.60;;;;;;;19.55;49.14;100329.56;5029117;28;20191;-67
2022/08/12 05:05:58;;;;;;;7.00;2.93;;;;;;;19.60;49.11;100329.16;5011501;28;20222;-67
2022/08/12 05:08:25;;;;;;;4.90;2.77;;;;;;;19.64;49.22;100330.53;5013662;28;20321;-67
2022/08/12 05:10:50;;;;;;;4.23;2.30;;;;;;;19.86;47.81;100331.22;5017581;28;20235;-67
2022/08/12 05:13:19;;;;;;;8.03;2.20;;;;;;;20.02;46.38;100333.28;5044605;28;20207;-67
2022/08/12 05:15:44;;;;;;;4.33;2.47;;;;;;;20.11;46.45;100332.44;5025464;28;20232;-68
2022/08/12 05:18:11;;;;;;;5.80;2.30;;;;;;;20.13;46.04;100335.72;5012090;28;20175;-68
2022/08/12 05:20:37;;;;;;;5.37;2.50;;;;;;;20.26;44.84;100332.81;5012541;28;20227;-67
2022/08/12 05:23:10;;;;;;;6.93;2.70;;;;;;;20.30;44.78;100342.03;5024190;28;20728;-67
2022/08/12 05:25:35;;;;;;;7.40;2.20;;;;;;;20.38;43.67;100339.53;5012919;28;20262;-67
2022/08/12 05:28:04;;;;;;;3.00;2.37;;;;;;;20.61;43.46;100334.75;5013243;28;20613;-67
2022/08/12 05:30:31;;;;;;;3.60;2.37;;;;;;;20.64;43.97;100344.13;4997434;28;20217;-67
2022/08/12 05:32:57;;;;;;;5.60;2.53;;;;;;;20.86;42.87;100335.09;5024260;28;20206;-67
2022/08/12 05:35:22;;;;;;;6.37;2.17;;;;;;;21.08;42.48;100340.91;5012903;28;20217;-67
2022/08/12 05:38:54;;;;;;;5.90;2.07;;;;;;;21.11;42.20;100333.59;5012096;28;20214;-67
2022/08/12 05:40:34;;;;;;;2.83;2.47;;;;;;;21.31;41.85;100335.28;5010923;28;20253;-67
2022/08/12 05:42:59;;;;;;;3.17;2.40;;;;;;;21.36;41.58;100333.88;5023687;28;20206;-68
2022/08/12 05:45:24;;;;;;;5.27;4.77;;;;;;;21.31;41.61;100336.09;5011095;28;20203;-67
2022/08/12 05:47:50;;;;;;;5.23;2.70;;;;;;;21.40;41.21;100340.44;5012433;28;20240;-67
2022/08/12 05:50:15;;;;;;;5.87;2.33;;;;;;;21.40;41.35;100337.00;5005947;28;20179;-67
2022/08/12 05:52:40;;;;;;;3.63;2.20;;;;;;;21.51;40.97;100338.56;5041194;28;20210;-66
2022/08/12 05:55:06;;;;;;;6.30;2.40;;;;;;;21.64;40.75;100351.31;5012498;28;20635;-67
2022/08/12 05:57:32;;;;;;;5.93;2.20;;;;;;;21.79;40.19;100349.81;5011223;28;20186;-67
2022/08/12 05:59:57;;;;;;;3.23;2.67;;;;;;;21.76;39.96;100345.69;5012513;28;20187;-67
2022/08/12 06:02:22;;;;;;;6.03;2.23;;;;;;;21.81;39.73;100350.50;5034680;28;20227;-67
2022/08/12 06:04:47;;;;;;;4.30;2.17;;;;;;;21.89;39.85;100352.34;5012212;28;20212;-67
2022/08/12 06:07:13;;;;;;;2.90;2.60;;;;;;;22.02;40.03;100347.53;5012533;28;20227;-67
2022/08/12 06:09:38;;;;;;;3.80;2.30;;;;;;;22.17;39.25;100357.47;5012992;28;20183;-67
2022/08/12 06:12:03;;;;;;;8.33;2.20;;;;;;;22.17;38.88;100358.28;5038359;28;20225;-67
2022/08/12 06:14:30;;;;;;;5.43;2.20;;;;;;;22.07;39.23;100371.47;5016311;28;20561;-67
2022/08/12 06:16:56;;;;;;;5.07;2.10;;;;;;;22.22;38.80;100363.88;5013507;28;20606;-67
2022/08/12 06:19:21;;;;;;;8.67;2.17;;;;;;;22.36;38.65;100362.53;5013056;28;20229;-67
2022/08/12 06:21:47;;;;;;;3.80;2.00;;;;;;;22.47;38.10;100363.25;5030020;28;20228;-67
2022/08/12 06:24:14;;;;;;;4.70;2.13;;;;;;;22.62;38.72;100371.38;5016156;28;20191;-67
2022/08/12 06:26:39;;;;;;;3.40;2.20;;;;;;;22.58;38.57;100362.19;5012381;28;20646;-67
2022/08/12 06:29:05;;;;;;;5.27;2.03;;;;;;;22.76;38.19;100364.72;5010273;28;20274;-67
2022/08/12 06:31:30;;;;;;;6.20;2.20;;;;;;;22.80;38.12;100364.25;5024532;28;20232;-67
2022/08/12 06:33:55;;;;;;;3.10;2.20;;;;;;;22.80;37.94;100366.88;5020100;28;20190;-67
2022/08/12 06:36:22;;;;;;;4.07;2.37;;;;;;;22.75;37.61;100369.16;4994413;28;20198;-67
2022/08/12 06:38:48;;;;;;;6.57;2.53;;;;;;;22.88;38.10;100366.91;5010284;28;20962;-67
2022/08/12 06:43:58;;;;;;;2.93;2.00;;;;;;;23.30;36.73;100353.94;5018340;28;20201;-68
2022/08/12 06:46:25;;;;;;;4.23;2.13;;;;;;;23.59;35.82;100355.31;5011361;28;20187;-68
2022/08/12 06:48:56;;;;;;;4.87;2.47;;;;;;;24.48;34.56;100358.84;5014194;28;20185;-68
2022/08/12 06:51:26;;;;;;;4.37;2.20;;;;;;;25.43;32.30;100362.44;5020083;28;20222;-68
2022/08/12 06:53:54;;;;;;;9.43;2.60;;;;;;;26.32;31.44;100363.72;5014831;28;20189;-67
2022/08/12 06:56:20;;;;;;;6.05;1.98;;;;;;;26.54;30.59;100359.31;5008427;28;20175;-67
2022/08/12 06:58:45;;;;;;;7.18;2.20;;;;;;;26.17;30.68;100353.16;5009742;28;20298;-71
2022/08/12 07:01:10;;;;;;;3.58;1.90;;;;;;;26.34;31.10;100359.06;4986614;28;20252;-71
2022/08/12 07:03:37;;;;;;;6.82;2.53;;;;;;;27.93;29.14;100354.94;4991956;28;20274;-70
2022/08/12 07:06:10;;;;;;;2.78;1.80;;;;;;;28.11;27.86;100358.97;5009841;28;20217;-70
2022/08/12 07:08:37;;;;;;;5.57;2.10;;;;;;;27.03;29.13;100357.13;5009976;28;20716;-70
2022/08/12 07:11:06;;;;;;;3.90;2.42;;;;;;;26.85;29.06;100353.03;5018705;28;20241;-70
2022/08/12 07:13:37;;;;;;;6.90;2.30;;;;;;;26.92;29.55;100360.22;5022483;28;20199;-71
2022/08/12 07:19:26;;;;;;;4.32;1.90;;;;;;;27.33;28.35;100360.47;5010084;28;20664;-71
2022/08/12 07:21:52;;;;;;;10.32;2.45;;;;;;;27.81;27.54;100367.03;5029601;28;20221;-73
2022/08/12 07:27:41;;;;;;;3.47;1.77;;;;;;;28.00;27.30;100370.84;5011004;28;20178;-74
2022/08/12 07:30:08;;;;;;;3.42;2.17;;;;;;;27.89;27.43;100374.84;4988814;28;20233;-72
2022/08/12 07:32:34;;;;;;;6.05;2.30;;;;;;;28.28;27.50;100375.34;5023656;28;20223;-73
2022/08/12 07:34:59;;;;;;;4.28;1.90;;;;;;;28.37;27.10;100379.47;4990769;28;20195;-72
2022/08/12 07:37:25;;;;;;;8.95;2.20;;;;;;;27.85;27.31;100374.41;4991893;28;20191;-71
2022/08/12 07:39:50;;;;;;;8.70;2.20;;;;;;;28.46;27.06;100373.00;4996957;28;20179;-73
2022/08/12 07:42:15;;;;;;;6.05;2.00;;;;;;;28.22;27.26;100378.75;5031455;28;20320;-73
2022/08/12 07:44:42;;;;;;;2.63;1.65;;;;;;;29.03;26.29;100369.44;5010129;28;20186;-73
2022/08/12 07:47:08;;;;;;;2.53;1.90;;;;;;;29.82;25.43;100369.75;5011133;28;20297;-71
2022/08/12 07:49:33;;;;;;;5.85;1.85;;;;;;;30.46;24.15;100370.09;5015342;28;20274;-71
2022/08/12 07:51:59;;;;;;;3.40;2.00;;;;;;;31.20;23.78;100370.66;5018324;28;20217;-72
2022/08/12 07:54:25;;;;;;;4.13;2.03;;;;;;;30.43;24.39;100369.50;5010082;28;20517;-71
2022/08/12 07:56:50;;;;;;;2.25;2.00;;;;;;;30.85;23.97;100374.47;5015614;28;20646;-71
2022/08/12 07:59:15;;;;;;;7.32;2.00;;;;;;;29.94;24.90;100374.28;5009910;28;20183;-73
2022/08/12 08:01:42;;;;;;;4.45;1.98;;;;;;;30.78;24.17;100373.69;5026245;28;20742;-71
2022/08/12 08:06:51;;;;;;;4.55;2.10;;;;;;;32.75;22.32;100372.81;5014556;28;20284;-72
2022/08/12 08:09:20;;;;;;;4.35;1.90;;;;;;;33.13;21.61;100379.66;5045847;28;20277;-70
2022/08/12 08:14:31;;;;;;;2.85;2.03;;;;;;;31.86;22.53;100371.22;5017483;28;20272;-71
2022/08/12 08:16:57;;;;;;;3.90;1.77;;;;;;;32.23;22.80;100367.84;5014375;28;20175;-72
2022/08/12 08:19:24;;;;;;;6.65;2.22;;;;;;;31.12;22.59;100370.91;5013255;28;20203;-72
2022/08/12 08:21:51;;;;;;;3.78;1.83;;;;;;;31.23;22.84;100378.19;5016750;28;20313;-69
2022/08/12 08:24:17;;;;;;;7.55;1.95;;;;;;;31.84;22.30;100374.09;4995445;28;20602;-71
2022/08/12 08:26:47;;;;;;;6.85;1.80;;;;;;;31.52;22.61;100368.78;5011389;28;20194;-70
2022/08/12 08:29:14;;;;;;;7.75;1.70;;;;;;;32.28;22.21;100378.63;5014028;28;20187;-69
2022/08/12 08:31:44;;;;;;;2.83;1.67;;;;;;;31.69;22.23;100378.91;5019569;28;20229;-72
2022/08/12 08:34:10;;;;;;;2.65;1.80;;;;;;;31.06;22.69;100380.50;5015001;28;20638;-70
2022/08/12 08:36:38;;;;;;;1.83;1.60;;;;;;;31.16;22.86;100372.09;5014367;28;20183;-71
2022/08/12 08:39:03;;;;;;;4.28;1.75;;;;;;;30.65;23.40;100377.22;5015115;28;20191;-70
2022/08/12 08:44:13;;;;;;;3.33;1.75;;;;;;;31.17;23.11;100363.09;5017427;28;20700;-71
2022/08/12 08:46:39;;;;;;;3.33;1.40;;;;;;;31.03;23.07;100360.47;5012768;28;20183;-70
2022/08/12 08:49:05;;;;;;;4.60;1.88;;;;;;;34.02;21.12;100360.22;5024318;28;20214;-70
2022/08/12 08:51:31;;;;;;;2.50;1.85;;;;;;;35.49;18.50;100364.41;5017626;28;20698;-71
2022/08/12 08:53:57;;;;;;;4.68;1.55;;;;;;;35.35;18.64;100365.72;5017360;28;20277;-68
2022/08/12 08:56:22;;;;;;;3.28;1.58;;;;;;;34.35;19.19;100366.81;5013068;28;20221;-69
2022/08/12 08:58:48;;;;;;;7.40;1.48;;;;;;;34.25;19.09;100350.56;5012676;28;20669;-72
2022/08/12 09:01:20;;;;;;;1.70;1.60;;;;;;;33.92;19.40;100355.47;5014915;28;20639;-72
2022/08/12 09:03:46;;;;;;;3.53;1.90;;;;;;;33.38;20.17;100352.03;5024506;28;20252;-72
2022/08/12 09:06:13;;;;;;;5.70;1.80;;;;;;;33.93;19.42;100350.97;5013210;28;20195;-70
2022/08/12 09:08:43;;;;;;;3.78;1.70;;;;;;;33.81;19.30;100348.25;5045060;28;20227;-70
2022/08/12 09:13:52;;;;;;;5.72;1.70;;;;;;;33.31;19.70;100347.63;5022468;28;20209;-70
2022/08/12 09:16:18;;;;;;;5.53;1.80;;;;;;;34.16;19.02;100343.97;5018846;28;20190;-69
2022/08/12 09:18:43;;;;;;;2.72;1.40;;;;;;;33.52;20.00;100339.34;5012098;28;20536;-70
2022/08/12 09:21:09;;;;;;;4.13;1.58;;;;;;;33.89;19.12;100341.78;5020881;28;20224;-68
2022/08/12 09:23:37;;;;;;;3.63;1.50;;;;;;;32.24;19.80;100337.50;5027845;28;20595;-68
2022/08/12 09:26:03;;;;;;;3.42;1.67;;;;;;;33.14;18.81;100339.47;5011221;28;20839;-68
2022/08/12 09:28:28;;;;;;;3.03;1.60;;;;;;;35.72;17.12;100325.13;5012575;28;20194;-69
2022/08/12 09:30:57;;;;;;;2.42;1.52;;;;;;;35.04;18.48;100335.81;5037266;28;20218;-70
2022/08/12 09:33:29;;;;;;;2.58;2.30;;;;;;;34.82;17.74;100330.31;5021011;28;20630;-68
2022/08/12 09:35:56;;;;;;;4.53;1.60;;;;;;;35.69;16.96;100320.28;5012213;28;20248;-69
2022/08/12 09:38:22;;;;;;;4.60;1.50;;;;;;;35.74;16.73;100323.03;5010153;28;20208;-69
2022/08/12 09:40:48;;;;;;;2.97;1.40;;;;;;;33.99;18.19;100333.19;5008783;28;20673;-70
2022/08/12 09:45:59;;;;;;;2.35;1.67;;;;;;;35.06;17.56;100325.69;5012112;28;20190;-69
2022/08/12 09:48:25;;;;;;;1.58;1.48;;;;;;;33.19;19.17;100330.78;5014800;28;20183;-69
2022/08/12 09:50:51;;;;;;;4.55;1.55;;;;;;;32.13;20.20;100328.41;5008025;28;20365;-69
2022/08/12 09:53:23;;;;;;;5.82;1.38;;;;;;;32.03;20.27;100319.06;5020915;28;20236;-71
2022/08/12 09:55:53;;;;;;;3.38;1.40;;;;;;;31.51;20.83;100323.84;5011042;28;20192;-71
2022/08/12 09:58:27;;;;;;;1.42;1.05;;;;;;;31.80;19.81;100319.69;5011368;28;20190;-70
2022/08/12 10:01:00;;;;;;;4.82;2.05;;;;;;;32.15;20.08;100315.66;5015850;28;20216;-69
2022/08/12 10:03:30;;;;;;;3.10;1.52;;;;;;;33.34;19.04;100316.22;5020418;28;20725;-71
2022/08/12 10:05:56;;;;;;;3.25;1.55;;;;;;;34.65;17.96;100315.06;5010456;28;20202;-70
2022/08/12 10:08:22;;;;;;;2.95;1.80;;;;;;;32.79;19.95;100299.38;5011681;28;20696;-71
2022/08/12 10:13:40;;;;;;;5.18;2.03;;;;;;;33.79;18.93;100289.81;5026939;28;20835;-69
2022/08/12 10:16:18;;;;;;;3.08;1.70;;;;;;;34.72;18.11;100281.00;5004085;28;20309;-69
2022/08/12 10:18:47;;;;;;;4.70;1.80;;;;;;;35.23;17.97;100277.59;5011081;28;20186;-70
2022/08/12 10:21:18;;;;;;;4.28;1.33;;;;;;;35.48;18.02;100271.84;5020497;28;20225;-68
2022/08/12 10:23:45;;;;;;;1.75;1.65;;;;;;;36.95;15.97;100280.28;5016807;28;20218;-70
2022/08/12 10:31:44;;;;;;;3.92;1.52;;;;;;;33.40;18.18;100254.78;5028171;28;20587;-70
2022/08/12 10:34:12;;;;;;;4.10;1.60;;;;;;;32.81;18.89;100252.84;5017334;28;20179;-71
2022/08/12 10:36:39;;;;;;;2.63;1.70;;;;;;;33.82;17.94;100248.53;5009895;28;20179;-69
2022/08/12 10:39:07;;;;;;;1.80;1.70;;;;;;;34.55;17.09;100262.28;5010450;28;20258;-68
2022/08/12 10:44:17;;;;;;;1.60;1.30;;;;;;;33.09;19.01;100245.25;5008805;28;20554;-70
2022/08/12 10:46:44;;;;;;;2.53;1.48;;;;;;;33.68;17.92;100258.63;5012133;28;20179;-70
2022/08/12 10:49:10;;;;;;;5.38;1.58;;;;;;;32.65;18.65;100251.59;5014087;28;20193;-70
2022/08/12 10:51:36;;;;;;;2.33;1.75;;;;;;;30.73;21.10;100241.56;5016305;28;20255;-70
2022/08/12 10:54:01;;;;;;;3.47;1.60;;;;;;;30.22;21.53;100229.16;5018645;28;20194;-69
2022/08/12 10:56:27;;;;;;;2.63;1.63;;;;;;;29.58;22.26;100231.53;5010257;28;20186;-71
2022/08/12 10:58:54;;;;;;;5.43;1.65;;;;;;;29.26;22.55;100226.03;5012007;28;20201;-71
2022/08/12 11:01:20;;;;;;;5.60;1.95;;;;;;;28.45;23.50;100219.75;5000766;28;20257;-69
2022/08/12 11:03:45;;;;;;;3.20;1.58;;;;;;;28.26;23.60;100226.63;5009351;28;20587;-71
2022/08/12 11:06:11;;;;;;;1.70;1.40;;;;;;;28.37;24.01;100227.88;5011074;28;20657;-69
2022/08/12 11:08:38;;;;;;;4.50;1.73;;;;;;;28.28;23.83;100225.41;5011362;28;20231;-79
2022/08/12 11:11:06;;;;;;;5.30;1.55;;;;;;;28.23;24.15;100221.72;5017541;28;20244;-78
2022/08/12 11:13:32;;;;;;;1.85;1.60;;;;;;;28.20;24.51;100220.28;5017947;28;20206;-76
2022/08/12 11:15:57;;;;;;;2.60;1.40;;;;;;;28.56;24.20;100215.72;5037529;28;20276;-74
2022/08/12 11:18:22;;;;;;;1.73;1.60;;;;;;;28.45;24.17;100220.56;5013005;28;20650;-72
2022/08/12 11:20:48;;;;;;;4.82;1.63;;;;;;;28.67;24.02;100208.03;5010406;28;20225;-78
2022/08/12 11:23:14;;;;;;;3.08;1.27;;;;;;;28.72;23.46;100209.28;5032745;28;20186;-74
2022/08/12 11:25:43;;;;;;;2.05;1.40;;;;;;;28.63;23.70;100195.41;5010626;28;20630;-75
2022/08/12 11:28:08;;;;;;;4.32;2.08;;;;;;;28.49;24.20;100202.47;5010014;28;20717;-74
2022/08/12 11:30:34;;;;;;;4.25;1.67;;;;;;;28.16;24.66;100203.19;4983485;28;20226;-75
2022/08/12 11:32:59;;;;;;;2.85;1.55;;;;;;;28.07;24.49;100202.53;5020931;28;20234;-77
2022/08/12 11:35:26;;;;;;;2.08;1.50;;;;;;;28.21;24.37;100200.75;5011001;28;20183;-74
2022/08/12 11:37:52;;;;;;;2.75;1.73;;;;;;;28.31;24.50;100198.56;5010363;28;20182;-76
2022/08/12 11:40:17;;;;;;;6.13;1.67;;;;;;;28.24;24.20;100194.25;5039911;28;20189;-76
2022/08/12 11:42:42;;;;;;;4.53;1.60;;;;;;;28.36;24.48;100190.03;5012282;28;20631;-74
2022/08/12 11:45:08;;;;;;;2.72;1.65;;;;;;;28.28;24.44;100198.13;5014442;28;20201;-75
2022/08/12 11:47:34;;;;;;;3.28;1.73;;;;;;;28.32;24.24;100186.16;5018044;28;20186;-72
2022/08/12 11:49:59;;;;;;;3.97;1.67;;;;;;;28.27;24.63;100185.91;5019564;28;20205;-75
2022/08/12 11:52:24;;;;;;;6.57;1.73;;;;;;;28.76;24.26;100179.56;5022188;28;20242;-74
2022/08/12 11:54:49;;;;;;;3.40;1.80;;;;;;;28.64;24.14;100179.31;5014873;28;20238;-74
2022/08/12 11:57:15;;;;;;;2.95;1.58;;;;;;;28.87;24.30;100174.69;5015289;28;20186;-73
2022/08/12 11:59:40;;;;;;;2.88;1.60;;;;;;;29.12;23.99;100174.91;5014477;28;20183;-75
2022/08/12 12:02:06;;;;;;;3.65;1.70;;;;;;;29.21;23.61;100173.69;5023526;28;20335;-75
2022/08/12 12:04:31;;;;;;;3.13;1.60;;;;;;;29.15;23.67;100164.72;5015099;28;20241;-75
2022/08/12 12:06:57;;;;;;;4.85;1.73;;;;;;;29.26;23.20;100173.03;5015312;28;20233;-76
2022/08/12 12:09:23;;;;;;;2.03;1.60;;;;;;;28.77;22.32;100165.31;5015655;28;20565;-70
2022/08/12 12:11:48;;;;;;;3.95;1.70;;;;;;;28.67;23.25;100164.88;5033357;28;20229;-75
2022/08/12 12:14:14;;;;;;;1.52;1.42;;;;;;;28.97;22.88;100154.72;5016752;28;20210;-74
2022/08/12 12:16:39;;;;;;;4.57;1.58;;;;;;;28.74;23.43;100162.25;5016541;28;20187;-74
2022/08/12 12:19:04;;;;;;;3.28;1.70;;;;;;;28.77;23.56;100160.00;5015459;28;20183;-74
2022/08/12 12:21:30;;;;;;;1.73;1.52;;;;;;;28.76;23.37;100163.66;5027735;28;20293;-74
2022/08/12 12:23:55;;;;;;;3.83;1.90;;;;;;;28.80;23.24;100145.56;5017357;28;20210;-74
2022/08/12 12:26:20;;;;;;;3.10;1.27;;;;;;;29.06;23.09;100143.94;5014329;28;20206;-73
2022/08/12 12:28:46;;;;;;;4.65;1.83;;;;;;;28.62;23.79;100138.19;5013745;28;20175;-73
2022/08/12 12:31:11;;;;;;;3.88;1.70;;;;;;;28.81;23.22;100136.59;5023284;28;20233;-75
2022/08/12 12:33:36;;;;;;;4.20;1.40;;;;;;;28.90;22.60;100142.50;5028605;28;20186;-74
2022/08/12 12:36:02;;;;;;;1.70;1.60;;;;;;;29.26;22.65;100146.56;5012537;28;20609;-74
2022/08/12 12:38:27;;;;;;;1.42;1.30;;;;;;;28.90;21.28;100131.91;5013062;28;20594;-73
2022/08/12 12:40:53;;;;;;;3.20;1.40;;;;;;;28.87;21.83;100127.84;5013226;28;20711;-75
2022/08/12 12:43:19;;;;;;;3.00;1.88;;;;;;;29.09;22.10;100132.94;5032448;28;20194;-73
2022/08/12 12:45:45;;;;;;;3.05;1.60;;;;;;;29.22;22.36;100132.91;5012716;28;20175;-72
2022/08/12 12:48:12;;;;;;;4.07;2.75;;;;;;;29.21;21.97;100128.66;5045465;28;20190;-75
2022/08/12 12:50:46;;;;;;;3.25;1.35;;;;;;;29.31;21.27;100125.59;5010197;28;20286;-75
2022/08/12 12:53:17;;;;;;;6.78;1.67;;;;;;;29.23;21.87;100126.59;5022940;28;20205;-73
2022/08/12 12:55:45;;;;;;;4.80;1.85;;;;;;;29.26;22.38;100118.25;5013742;28;20642;-73
2022/08/12 12:58:15;;;;;;;2.40;1.70;;;;;;;29.15;21.60;100117.03;5013625;28;20178;-74
2022/08/12 13:00:43;;;;;;;3.83;1.70;;;;;;;29.20;22.40;100111.13;5013994;28;20265;-73
2022/08/12 13:03:11;;;;;;;1.88;1.58;;;;;;;29.35;21.89;100102.16;5020825;28;20209;-70
2022/08/12 13:05:37;;;;;;;2.55;1.42;;;;;;;29.56;21.71;100101.06;5012502;28;20179;-75
2022/08/12 13:08:23;;;;;;;2.35;1.40;;;;;;;29.35;21.88;100097.69;5012104;28;20226;-72
2022/08/12 13:10:49;;;;;;;3.97;1.40;;;;;;;29.58;21.87;100091.91;5016013;28;20314;-74
2022/08/12 13:13:16;;;;;;;1.98;1.30;;;;;;;29.56;21.73;100098.41;5022466;28;20210;-75
2022/08/12 13:15:41;;;;;;;1.63;1.52;;;;;;;29.44;22.14;100101.72;5013095;28;20187;-75
2022/08/12 13:18:07;;;;;;;4.55;1.60;;;;;;;29.36;21.66;100101.13;5009476;28;20262;-76
2022/08/12 13:20:32;;;;;;;5.30;1.45;;;;;;;29.42;21.81;100102.94;5009436;28;20236;-80